createdAt,value
2022-10-15T00:01:35.705Z,47.95
2022-10-15T00:04:03.693Z,50.17
2022-10-15T00:06:31.724Z,50.30
2022-10-15T00:08:59.896Z,49.67
2022-10-15T00:11:30.134Z,49.30
2022-10-15T00:14:00.586Z,50.72
2022-10-15T00:16:30.211Z,49.38
2022-10-15T00:18:58.998Z,48.97
2022-10-15T00:21:27.413Z,48.08
2022-10-15T00:23:56.408Z,49.60
2022-10-15T00:26:26.218Z,47.72
2022-10-15T00:28:57.576Z,49.70
2022-10-15T00:31:27.235Z,48.53
2022-10-15T00:33:56.750Z,49.50
2022-10-15T00:36:26.873Z,47.10
2022-10-15T00:38:55.469Z,47.20
2022-10-15T00:41:25.221Z,47.20
2022-10-15T00:43:56.445Z,46.83
2022-10-15T00:46:28.193Z,48.20
2022-10-15T00:48:59.608Z,48.03
2022-10-15T00:51:31.148Z,46.47
2022-10-15T00:53:59.070Z,46.60
2022-10-15T00:56:29.861Z,48.25
2022-10-15T00:59:00.080Z,46.67
2022-10-15T01:01:28.520Z,48.22
2022-10-15T01:03:57.495Z,48.88
2022-10-15T01:06:26.987Z,49.33
2022-10-15T01:08:55.491Z,49.53
2022-10-15T01:11:38.381Z,49.17
2022-10-15T01:14:20.869Z,51.30
2022-10-15T01:16:54.642Z,49.38
2022-10-15T01:19:45.827Z,51.10
2022-10-15T01:22:19.235Z,50.78
2022-10-15T01:25:04.677Z,50.08
2022-10-15T01:27:39.485Z,52.72
2022-10-15T01:30:27.822Z,52.28
2022-10-15T01:33:17.046Z,52.33
2022-10-15T01:35:50.413Z,54.38
2022-10-15T01:38:27.816Z,54.53
2022-10-15T01:40:59.641Z,54.42
2022-10-15T01:43:35.292Z,53.88
2022-10-15T01:46:09.865Z,53.15
2022-10-15T01:48:39.657Z,53.97
2022-10-15T01:51:08.825Z,54.15
2022-10-15T01:53:38.914Z,54.13
2022-10-15T01:56:10.436Z,54.80
2022-10-15T01:58:40.956Z,55.55
2022-10-15T02:01:10.870Z,54.33
2022-10-15T02:03:46.886Z,54.38
2022-10-15T02:06:19.508Z,52.13
2022-10-15T02:08:57.533Z,54.10
2022-10-15T02:11:25.629Z,54.20
2022-10-15T02:14:01.227Z,52.92
2022-10-15T02:16:38.511Z,53.47
2022-10-15T02:19:13.561Z,52.33
2022-10-15T02:21:46.712Z,52.28
2022-10-15T02:24:19.561Z,55.22
2022-10-15T02:26:49.055Z,53.13
2022-10-15T02:29:22.481Z,53.30
2022-10-15T02:31:52.433Z,54.20
2022-10-15T02:34:23.470Z,54.13
2022-10-15T02:36:51.920Z,52.17
2022-10-15T02:39:24.710Z,53.70
2022-10-15T02:41:53.831Z,51.90
2022-10-15T02:44:21.820Z,52.60
2022-10-15T02:46:51.100Z,53.30
2022-10-15T02:49:19.013Z,53.58
2022-10-15T02:51:46.966Z,52.63
2022-10-15T02:54:14.903Z,53.20
2022-10-15T02:56:42.849Z,53.03
2022-10-15T02:59:10.707Z,50.97
2022-10-15T03:01:38.721Z,53.75
2022-10-15T03:04:08.144Z,53.50
2022-10-15T03:06:36.094Z,51.38
2022-10-15T03:09:04.304Z,51.33
2022-10-15T03:11:32.255Z,52.90
2022-10-15T03:14:00.290Z,58.15
2022-10-15T03:16:28.278Z,53.53
2022-10-15T03:18:56.446Z,52.85
2022-10-15T03:21:25.740Z,55.40
2022-10-15T03:23:53.586Z,53.83
2022-10-15T03:26:21.556Z,55.65
2022-10-15T03:28:49.647Z,55.28
2022-10-15T03:31:17.674Z,58.92
2022-10-15T03:33:45.806Z,55.28
2022-10-15T03:36:13.762Z,53.78
2022-10-15T03:38:43.177Z,57.25
2022-10-15T03:41:11.261Z,55.67
2022-10-15T03:43:41.931Z,52.90
2022-10-15T03:46:11.081Z,54.95
2022-10-15T03:48:39.098Z,53.97
2022-10-15T03:51:07.168Z,53.28
2022-10-15T03:53:35.219Z,55.45
2022-10-15T03:56:06.493Z,54.55
2022-10-15T03:58:34.639Z,51.22
2022-10-15T04:01:02.798Z,53.78
2022-10-15T04:03:30.813Z,50.03
2022-10-15T04:06:01.293Z,52.20
2022-10-15T04:08:31.213Z,50.20
2022-10-15T04:11:00.280Z,51.97
2022-10-15T04:13:30.243Z,50.33
2022-10-15T04:15:58.465Z,51.85
2022-10-15T04:18:26.440Z,50.65
2022-10-15T04:20:54.436Z,53.03
2022-10-15T04:23:22.339Z,52.10
2022-10-15T04:25:50.275Z,53.35
2022-10-15T04:28:18.286Z,51.22
2022-10-15T04:30:47.621Z,52.97
2022-10-15T04:33:15.845Z,49.72
2022-10-15T04:35:43.814Z,48.58
2022-10-15T04:38:11.732Z,48.53
2022-10-15T04:40:41.126Z,47.78
2022-10-15T04:43:09.050Z,46.03
2022-10-15T04:45:36.984Z,46.20
2022-10-15T04:48:07.204Z,47.75
2022-10-15T04:50:35.151Z,47.40
2022-10-15T04:53:03.093Z,44.65
2022-10-15T04:55:31.717Z,48.42
2022-10-15T04:57:59.888Z,47.35
2022-10-15T05:00:27.835Z,50.47
2022-10-15T05:02:55.782Z,49.22
2022-10-15T05:05:25.160Z,49.08
2022-10-15T05:07:53.137Z,50.08
2022-10-15T05:10:21.082Z,51.28
2022-10-15T05:12:51.486Z,51.83
2022-10-15T05:15:22.101Z,50.42
2022-10-15T05:17:49.973Z,51.75
2022-10-15T05:20:17.983Z,50.88
2022-10-15T05:22:47.498Z,51.75
2022-10-15T05:25:15.534Z,50.45
2022-10-15T05:27:43.533Z,51.60
2022-10-15T05:30:12.577Z,49.80
2022-10-15T05:32:40.564Z,51.50
2022-10-15T05:35:09.492Z,49.03
2022-10-15T05:37:37.446Z,49.58
2022-10-15T05:40:08.093Z,47.15
2022-10-15T05:42:36.006Z,48.20
2022-10-15T05:45:03.966Z,47.45
2022-10-15T05:47:32.001Z,47.17
2022-10-15T05:50:00.240Z,46.03
2022-10-15T05:52:28.972Z,45.83
2022-10-15T05:54:56.930Z,45.40
2022-10-15T05:57:26.305Z,45.70
2022-10-15T05:59:54.273Z,42.05
2022-10-15T06:02:22.930Z,41.63
2022-10-15T06:04:53.383Z,43.72
2022-10-15T06:07:21.475Z,42.65
2022-10-15T06:09:49.563Z,41.85
2022-10-15T06:12:17.540Z,43.15
2022-10-15T06:14:47.079Z,40.10
2022-10-15T06:17:15.113Z,42.50
2022-10-15T06:19:43.093Z,39.63
2022-10-15T06:22:11.070Z,41.33
2022-10-15T06:24:39.119Z,40.53
2022-10-15T06:27:07.280Z,41.10
2022-10-15T06:29:35.263Z,41.35
2022-10-15T06:32:04.992Z,42.47
2022-10-15T06:34:32.996Z,41.78
2022-10-15T06:37:03.972Z,42.08
2022-10-15T06:39:32.101Z,41.03
2022-10-15T06:42:03.075Z,41.63
2022-10-15T06:44:31.036Z,42.90
2022-10-15T06:47:05.214Z,42.65
2022-10-15T06:49:56.726Z,44.08
2022-10-15T06:52:25.100Z,43.92
2022-10-15T06:54:55.549Z,46.22
2022-10-15T06:57:25.670Z,44.72
2022-10-15T06:59:53.961Z,48.53
2022-10-15T07:02:24.986Z,47.15
2022-10-15T07:04:53.277Z,47.08
2022-10-15T07:07:21.232Z,49.33
2022-10-15T07:09:53.232Z,48.00
2022-10-15T07:12:22.383Z,48.38
2022-10-15T07:14:50.693Z,49.00
2022-10-15T07:17:18.659Z,46.47
2022-10-15T07:19:48.148Z,44.33
2022-10-15T07:22:16.059Z,40.88
2022-10-15T07:24:47.032Z,42.63
2022-10-15T07:27:19.032Z,41.67
2022-10-15T07:29:47.429Z,41.78
2022-10-15T07:32:15.469Z,41.60
2022-10-15T07:34:43.434Z,40.47
2022-10-15T07:37:12.811Z,41.28
2022-10-15T07:39:41.694Z,42.08
2022-10-15T07:42:09.865Z,42.95
2022-10-15T07:44:38.068Z,43.80
2022-10-15T07:47:06.034Z,46.47
2022-10-15T07:49:33.977Z,47.45
2022-10-15T07:52:02.020Z,48.40
2022-10-15T07:54:34.139Z,49.40
2022-10-15T07:57:02.083Z,49.47
2022-10-15T07:59:30.026Z,50.75
2022-10-15T08:01:57.906Z,48.65
2022-10-15T08:04:25.821Z,50.17
2022-10-15T08:06:53.951Z,50.42
2022-10-15T08:09:22.050Z,50.08
2022-10-15T08:11:51.399Z,50.60
2022-10-15T08:14:19.231Z,52.83
2022-10-15T08:16:47.219Z,52.05
2022-10-15T08:19:17.669Z,51.90
2022-10-15T08:21:47.454Z,50.15
2022-10-15T08:24:15.667Z,51.70
2022-10-15T08:26:43.950Z,51.30
2022-10-15T08:29:13.795Z,48.60
2022-10-15T08:31:42.037Z,47.25
2022-10-15T08:34:09.924Z,46.90
2022-10-15T08:36:37.848Z,47.03
2022-10-15T08:39:07.322Z,43.45
2022-10-15T08:41:40.828Z,45.60
2022-10-15T08:44:19.738Z,44.28
2022-10-15T08:46:52.089Z,44.58
2022-10-15T08:49:31.563Z,44.13
2022-10-15T08:52:09.876Z,43.60
2022-10-15T08:54:38.176Z,42.22
2022-10-15T08:57:16.298Z,41.63
2022-10-15T08:59:53.466Z,41.40
2022-10-15T09:02:27.200Z,41.70
2022-10-15T09:05:01.646Z,39.45
2022-10-15T09:07:36.515Z,40.70
2022-10-15T09:10:16.030Z,41.72
2022-10-15T09:12:52.258Z,42.03
2022-10-15T09:15:27.071Z,42.97
2022-10-15T09:17:56.909Z,40.97
2022-10-15T09:20:30.324Z,41.45
2022-10-15T09:22:58.597Z,43.45
2022-10-15T09:25:31.978Z,44.17
2022-10-15T09:28:09.179Z,42.63
2022-10-15T09:30:44.433Z,42.83
2022-10-15T09:33:18.935Z,41.03
2022-10-15T09:35:51.228Z,41.78
2022-10-15T09:38:36.756Z,39.10
2022-10-15T09:41:16.761Z,38.97
2022-10-15T09:43:47.925Z,36.63
2022-10-15T09:46:17.493Z,36.25
2022-10-15T09:48:53.671Z,36.17
2022-10-15T09:51:26.627Z,35.58
2022-10-15T09:54:04.463Z,35.35
2022-10-15T09:56:37.888Z,35.10
2022-10-15T09:59:08.869Z,33.03
2022-10-15T10:01:39.224Z,33.17
2022-10-15T10:04:18.683Z,30.73
2022-10-15T10:06:49.714Z,30.42
2022-10-15T10:09:20.976Z,30.17
2022-10-15T10:11:52.896Z,29.90
2022-10-15T10:14:27.075Z,30.77
2022-10-15T10:17:17.173Z,29.80
2022-10-15T10:19:46.370Z,28.17
2022-10-15T10:22:17.729Z,28.50
2022-10-15T10:24:46.710Z,28.33
2022-10-15T10:27:22.136Z,26.92
2022-10-15T10:29:55.539Z,26.70
2022-10-15T10:32:29.481Z,26.67
2022-10-15T10:34:58.049Z,26.52
2022-10-15T10:37:26.934Z,26.02
2022-10-15T10:39:57.356Z,26.05
2022-10-15T10:42:34.371Z,26.83
2022-10-15T10:45:23.732Z,25.25
2022-10-15T10:47:53.272Z,25.02
2022-10-15T10:50:31.210Z,24.75
2022-10-15T10:53:00.220Z,25.33
2022-10-15T10:55:38.320Z,26.23
2022-10-15T10:58:06.315Z,25.40
2022-10-15T11:00:40.222Z,26.30
2022-10-15T11:03:22.239Z,26.25
2022-10-15T11:05:54.363Z,25.35
2022-10-15T11:08:31.711Z,25.38
2022-10-15T11:11:05.513Z,25.17
2022-10-15T11:13:47.709Z,24.63
2022-10-15T11:16:25.927Z,25.80
2022-10-15T11:19:18.869Z,27.10
2022-10-15T11:22:06.998Z,27.42
2022-10-15T11:24:49.136Z,28.20
2022-10-15T11:27:35.949Z,29.27
2022-10-15T11:30:08.929Z,28.52
2022-10-15T11:33:06.304Z,28.67
2022-10-15T11:35:59.540Z,28.73
2022-10-15T11:38:37.948Z,30.95
2022-10-15T11:41:22.448Z,28.50
2022-10-15T11:44:10.664Z,28.83
2022-10-15T11:46:46.941Z,29.48
2022-10-15T11:49:27.262Z,29.15
2022-10-15T11:52:09.006Z,28.85
2022-10-15T11:54:40.588Z,28.20
2022-10-15T11:57:10.065Z,26.85
2022-10-15T11:59:46.157Z,25.92
2022-10-15T12:02:18.813Z,26.00
2022-10-15T12:04:51.308Z,25.88
2022-10-15T12:07:26.898Z,23.35
2022-10-15T12:09:57.638Z,24.70
2022-10-15T12:12:34.807Z,22.58
2022-10-15T12:15:15.411Z,23.67
2022-10-15T12:17:51.731Z,22.70
2022-10-15T12:20:22.414Z,23.90
2022-10-15T12:22:59.880Z,25.23
2022-10-15T12:25:48.498Z,25.38
2022-10-15T12:28:22.372Z,25.27
2022-10-15T12:30:58.997Z,24.77
2022-10-15T12:33:33.988Z,25.73
2022-10-15T12:36:09.315Z,24.58
2022-10-15T12:38:41.196Z,24.58
2022-10-15T12:41:11.843Z,25.75
2022-10-15T12:43:44.223Z,25.60
2022-10-15T12:46:13.582Z,25.80
2022-10-15T12:48:43.986Z,25.38
2022-10-15T12:51:39.402Z,26.23
2022-10-15T12:54:38.855Z,25.88
2022-10-15T12:57:44.159Z,27.33
2022-10-15T13:00:32.661Z,24.77
2022-10-15T13:03:25.174Z,25.20
2022-10-15T13:05:55.179Z,25.08
2022-10-15T13:08:26.096Z,21.00
2022-10-15T13:10:58.864Z,19.13
2022-10-15T13:13:29.477Z,17.20
2022-10-15T13:16:00.906Z,17.20
2022-10-15T13:18:31.450Z,14.98
2022-10-15T13:23:31.237Z,17.20
2022-10-15T13:26:17.558Z,15.55
2022-10-15T13:28:47.048Z,17.35
2022-10-15T13:31:22.499Z,19.00
2022-10-15T13:33:55.045Z,21.42
2022-10-15T13:36:25.878Z,22.45
2022-10-15T13:38:59.794Z,24.88
2022-10-15T13:41:32.396Z,25.60
2022-10-15T13:44:02.460Z,23.88
2022-10-15T13:46:33.197Z,24.77
2022-10-15T13:49:02.830Z,25.08
2022-10-15T13:51:35.390Z,26.35
2022-10-15T13:54:08.996Z,26.65
2022-10-15T13:56:38.635Z,27.05
2022-10-15T13:59:06.889Z,26.63
2022-10-15T14:01:36.214Z,27.17
2022-10-15T14:04:05.215Z,28.48
2022-10-15T14:06:34.865Z,29.13
2022-10-15T14:09:15.017Z,28.92
2022-10-15T14:11:44.440Z,26.75
2022-10-15T14:14:31.284Z,28.00
2022-10-15T14:17:01.047Z,27.67
2022-10-15T14:19:30.945Z,26.88
2022-10-15T14:22:02.244Z,24.88
2022-10-15T14:24:34.050Z,27.00
2022-10-15T14:27:09.576Z,27.30
2022-10-15T14:29:40.985Z,26.55
2022-10-15T14:32:24.833Z,26.60
2022-10-15T14:34:53.249Z,26.67
2022-10-15T14:37:41.860Z,26.20
2022-10-15T14:40:15.843Z,27.05
2022-10-15T14:42:47.301Z,23.95
2022-10-15T14:45:22.834Z,21.02
2022-10-15T14:47:52.852Z,17.48
2022-10-15T14:50:21.633Z,18.77
2022-10-15T14:52:53.266Z,17.23
2022-10-15T14:55:33.108Z,21.08
2022-10-15T14:58:10.809Z,22.92
2022-10-15T15:00:43.327Z,23.08
2022-10-15T15:03:16.983Z,25.92
2022-10-15T15:05:46.970Z,27.80
2022-10-15T15:08:14.960Z,27.67
2022-10-15T15:10:44.013Z,27.60
2022-10-15T15:13:17.589Z,26.10
2022-10-15T15:15:45.632Z,24.08
2022-10-15T15:18:14.500Z,24.85
2022-10-15T15:20:43.749Z,21.90
2022-10-15T15:23:16.032Z,20.48
2022-10-15T15:25:43.962Z,20.17
2022-10-15T15:28:15.894Z,17.10
2022-10-15T15:30:45.745Z,18.63
2022-10-15T15:33:15.973Z,17.77
2022-10-15T15:35:53.338Z,17.27
2022-10-15T15:38:22.923Z,18.13
2022-10-15T15:40:51.494Z,19.20
2022-10-15T15:43:21.048Z,19.38
2022-10-15T15:45:49.036Z,18.88
2022-10-15T15:48:17.519Z,18.20
2022-10-15T15:50:45.527Z,18.13
2022-10-15T15:53:13.918Z,20.85
2022-10-15T15:55:43.032Z,20.98
2022-10-15T15:58:11.056Z,22.90
2022-10-15T16:00:40.512Z,23.83
2022-10-15T16:03:08.803Z,22.98
2022-10-15T16:05:38.515Z,24.55
2022-10-15T16:08:06.552Z,24.58
2022-10-15T16:10:35.098Z,23.50
2022-10-15T16:13:03.132Z,23.38
2022-10-15T16:15:31.077Z,24.80
2022-10-15T16:18:00.432Z,26.75
2022-10-15T16:20:28.382Z,25.88
2022-10-15T16:22:56.590Z,25.75
2022-10-15T16:25:26.509Z,25.95
2022-10-15T16:27:59.610Z,27.42
2022-10-15T16:30:27.704Z,27.65
2022-10-15T16:32:55.805Z,24.90
2022-10-15T16:35:28.024Z,25.70
2022-10-15T16:37:56.297Z,25.98
2022-10-15T16:40:24.391Z,26.67
2022-10-15T16:42:52.398Z,26.58
2022-10-15T16:45:20.444Z,27.52
2022-10-15T16:47:49.256Z,26.30
2022-10-15T16:50:17.879Z,28.00
2022-10-15T16:52:47.354Z,28.80
2022-10-15T16:55:16.868Z,27.95
2022-10-15T16:57:45.010Z,27.77
2022-10-15T17:00:13.806Z,27.90
2022-10-15T17:02:41.835Z,26.08
2022-10-15T17:05:10.216Z,26.13
2022-10-15T17:07:38.173Z,26.05
2022-10-15T17:10:10.896Z,24.63
2022-10-15T17:12:41.967Z,26.13
2022-10-15T17:15:10.874Z,21.50
2022-10-15T17:17:38.794Z,24.40
2022-10-15T17:20:09.174Z,22.40
2022-10-15T17:22:40.104Z,23.10
2022-10-15T17:25:10.005Z,23.02
2022-10-15T17:27:40.240Z,21.92
2022-10-15T17:30:09.609Z,21.33
2022-10-15T17:32:37.655Z,23.45
2022-10-15T17:35:06.157Z,24.60
2022-10-15T17:40:03.007Z,23.15
2022-10-15T17:42:32.405Z,23.45
2022-10-15T17:45:00.453Z,25.25
2022-10-15T17:47:28.735Z,27.27
2022-10-15T17:50:01.095Z,29.05
2022-10-15T17:52:29.024Z,28.70
2022-10-15T17:54:57.216Z,27.33
2022-10-15T17:57:25.679Z,24.00
2022-10-15T17:59:55.150Z,24.85
2022-10-15T18:02:23.266Z,24.40
2022-10-15T18:04:51.290Z,23.73
2022-10-15T18:07:19.845Z,24.13
2022-10-15T18:09:48.038Z,25.10
2022-10-15T18:12:15.972Z,24.63
2022-10-15T18:14:44.016Z,24.15
2022-10-15T18:17:15.246Z,23.83
2022-10-15T18:19:43.357Z,25.23
2022-10-15T18:22:11.328Z,25.60
2022-10-15T18:24:39.306Z,23.95
2022-10-15T18:27:07.639Z,23.23
2022-10-15T18:29:36.116Z,24.75
2022-10-15T18:32:04.126Z,24.95
2022-10-15T18:34:34.347Z,23.55
2022-10-15T18:37:02.329Z,24.52
2022-10-15T18:39:30.378Z,23.40
2022-10-15T18:42:00.769Z,23.70
2022-10-15T18:44:29.328Z,22.73
2022-10-15T18:46:57.569Z,24.08
2022-10-15T18:49:25.635Z,23.33
2022-10-15T18:51:55.389Z,22.95
2022-10-15T18:54:23.898Z,23.38
2022-10-15T18:56:53.578Z,26.55
2022-10-15T18:59:21.670Z,26.90
2022-10-15T19:01:50.942Z,26.60
2022-10-15T19:04:20.181Z,27.98
2022-10-15T19:06:51.022Z,27.48
2022-10-15T19:09:23.150Z,28.50
2022-10-15T19:11:53.162Z,26.95
2022-10-15T19:14:21.411Z,28.23
2022-10-15T19:16:49.656Z,29.67
2022-10-15T19:19:19.179Z,28.77
2022-10-15T19:21:48.386Z,27.85
2022-10-15T19:24:17.983Z,29.25
2022-10-15T19:26:47.482Z,30.15
2022-10-15T19:29:15.602Z,30.98
2022-10-15T19:31:45.890Z,30.40
2022-10-15T19:34:14.461Z,29.80
2022-10-15T19:36:46.240Z,30.73
2022-10-15T19:39:16.550Z,30.73
2022-10-15T19:41:45.788Z,30.33
2022-10-15T19:44:17.970Z,29.90
2022-10-15T19:46:46.727Z,29.70
2022-10-15T19:49:15.988Z,29.95
2022-10-15T19:51:44.068Z,31.77
2022-10-15T19:54:12.033Z,31.13
2022-10-15T19:56:40.039Z,30.05
2022-10-15T19:59:08.657Z,30.98
2022-10-15T20:01:38.495Z,28.80
2022-10-15T20:04:07.449Z,29.30
2022-10-15T20:06:36.194Z,28.95
2022-10-15T20:09:04.366Z,28.65
2022-10-15T20:11:32.615Z,29.55
2022-10-15T20:14:00.759Z,27.23
2022-10-15T20:16:32.811Z,28.70
2022-10-15T20:19:04.062Z,27.52
2022-10-15T20:21:32.609Z,27.90
2022-10-15T20:24:06.217Z,27.70
2022-10-15T20:26:34.546Z,28.13
2022-10-15T20:29:02.791Z,27.45
2022-10-15T20:31:33.141Z,27.90
2022-10-15T20:34:03.489Z,27.88
2022-10-15T20:36:31.590Z,27.55
2022-10-15T20:39:00.802Z,29.15
2022-10-15T20:41:29.218Z,28.67
2022-10-15T20:43:59.683Z,29.42
2022-10-15T20:46:31.121Z,28.95
2022-10-15T20:49:06.056Z,29.45
2022-10-15T20:51:40.845Z,29.20
2022-10-15T20:54:09.244Z,29.90
2022-10-15T20:56:37.371Z,29.95
2022-10-15T20:59:05.889Z,30.30
2022-10-15T21:01:34.425Z,29.77
2022-10-15T21:04:05.828Z,27.90
2022-10-15T21:06:33.854Z,28.75
2022-10-15T21:09:04.169Z,27.70
2022-10-15T21:11:32.274Z,28.25
2022-10-15T21:14:01.690Z,29.45
2022-10-15T21:16:29.751Z,29.10
2022-10-15T21:18:57.641Z,29.65
2022-10-15T21:21:25.693Z,29.83
2022-10-15T21:23:53.673Z,29.67
2022-10-15T21:26:23.328Z,28.20
2022-10-15T21:28:55.516Z,28.58
2022-10-15T21:31:23.538Z,29.25
2022-10-15T21:33:54.862Z,30.58
2022-10-15T21:36:26.158Z,29.35
2022-10-15T21:38:55.981Z,28.08
2022-10-15T21:41:26.942Z,28.10
2022-10-15T21:43:54.970Z,28.08
2022-10-15T21:46:22.989Z,29.92
2022-10-15T21:48:52.591Z,29.80
2022-10-15T21:51:26.100Z,30.58
2022-10-15T21:53:54.800Z,30.10
2022-10-15T21:56:25.063Z,29.92
2022-10-15T21:58:54.538Z,29.38
2022-10-15T22:01:24.220Z,29.77
2022-10-15T22:03:54.932Z,29.60
2022-10-15T22:06:22.846Z,32.08
2022-10-15T22:08:50.891Z,31.60
2022-10-15T22:11:21.153Z,32.55
2022-10-15T22:13:53.250Z,31.33
2022-10-15T22:16:22.965Z,31.05
2022-10-15T22:18:51.335Z,29.98
2022-10-15T22:21:21.653Z,30.65
2022-10-15T22:23:51.283Z,32.47
2022-10-15T22:26:20.757Z,29.20
2022-10-15T22:28:49.080Z,29.77
2022-10-15T22:31:18.330Z,29.58
2022-10-15T22:33:47.748Z,28.63
2022-10-15T22:36:18.060Z,30.92
2022-10-15T22:38:48.553Z,32.40
2022-10-15T22:41:17.485Z,31.27
2022-10-15T22:43:45.806Z,31.77
2022-10-15T22:46:14.215Z,33.28
2022-10-15T22:48:43.360Z,32.15
2022-10-15T22:51:14.152Z,32.55
2022-10-15T22:53:42.872Z,32.38
2022-10-15T22:56:13.346Z,33.15
2022-10-15T22:58:41.716Z,32.72
2022-10-15T23:01:13.739Z,32.22
2022-10-15T23:03:42.350Z,31.30
2022-10-15T23:06:12.727Z,31.63
2022-10-15T23:08:44.231Z,30.55
2022-10-15T23:11:14.817Z,32.13
2022-10-15T23:13:45.189Z,31.40
2022-10-15T23:16:15.529Z,31.13
2022-10-15T23:18:44.823Z,29.27
2022-10-15T23:21:17.353Z,30.40
2022-10-15T23:23:46.609Z,29.35
2022-10-15T23:26:16.138Z,28.27
2022-10-15T23:28:45.295Z,27.45
2022-10-15T23:31:17.333Z,27.98
2022-10-15T23:33:45.492Z,27.48
2022-10-15T23:36:15.400Z,27.30
2022-10-15T23:38:43.402Z,27.80
2022-10-15T23:41:12.069Z,28.73
2022-10-15T23:43:40.127Z,26.02
2022-10-15T23:46:08.526Z,27.17
2022-10-15T23:48:36.757Z,27.02
2022-10-15T23:51:11.997Z,26.38
2022-10-15T23:53:41.469Z,27.02
2022-10-15T23:56:10.106Z,27.52
2022-10-15T23:58:38.395Z,28.35
